sensor_id;sensor_type;location;lat;lon;timestamp;P1;durP1;ratioP1;P2;durP2;ratioP2
7330;SDS011;3706;49.198;7.064;2022-11-20T00:01:09;13.63;;;8.63;;
7330;SDS011;3706;49.198;7.064;2022-11-20T00:03:37;9.03;;;7.23;;
7330;SDS011;3706;49.198;7.064;2022-11-20T00:06:04;14.93;;;9.50;;
7330;SDS011;3706;49.198;7.064;2022-11-20T00:08:32;11.53;;;8.60;;
7330;SDS011;3706;49.198;7.064;2022-11-20T00:11:02;12.87;;;8.93;;
7330;SDS011;3706;49.198;7.064;2022-11-20T00:13:31;12.70;;;9.50;;
7330;SDS011;3706;49.198;7.064;2022-11-20T00:15:58;12.87;;;8.63;;
7330;SDS011;3706;49.198;7.064;2022-11-20T00:18:26;13.00;;;9.57;;
7330;SDS011;3706;49.198;7.064;2022-11-20T00:20:53;11.90;;;9.67;;
7330;SDS011;3706;49.198;7.064;2022-11-20T00:23:20;12.60;;;9.73;;
7330;SDS011;3706;49.198;7.064;2022-11-20T00:25:46;14.07;;;9.43;;
7330;SDS011;3706;49.198;7.064;2022-11-20T00:28:13;14.87;;;9.80;;
7330;SDS011;3706;49.198;7.064;2022-11-20T00:30:42;12.83;;;9.73;;
7330;SDS011;3706;49.198;7.064;2022-11-20T00:33:09;15.40;;;10.73;;
7330;SDS011;3706;49.198;7.064;2022-11-20T00:35:35;13.00;;;10.20;;
7330;SDS011;3706;49.198;7.064;2022-11-20T00:38:02;11.70;;;8.97;;
7330;SDS011;3706;49.198;7.064;2022-11-20T00:40:29;14.00;;;11.23;;
7330;SDS011;3706;49.198;7.064;2022-11-20T00:42:56;12.67;;;9.87;;
7330;SDS011;3706;49.198;7.064;2022-11-20T00:45:23;14.40;;;9.07;;
7330;SDS011;3706;49.198;7.064;2022-11-20T00:47:51;12.60;;;8.77;;
7330;SDS011;3706;49.198;7.064;2022-11-20T00:50:18;17.07;;;10.87;;
7330;SDS011;3706;49.198;7.064;2022-11-20T00:52:45;12.47;;;9.87;;
7330;SDS011;3706;49.198;7.064;2022-11-20T00:55:12;12.93;;;9.50;;
7330;SDS011;3706;49.198;7.064;2022-11-20T00:57:39;24.67;;;10.97;;
7330;SDS011;3706;49.198;7.064;2022-11-20T01:00:06;13.37;;;9.73;;
7330;SDS011;3706;49.198;7.064;2022-11-20T01:02:34;16.53;;;9.23;;
7330;SDS011;3706;49.198;7.064;2022-11-20T01:05:02;13.70;;;8.87;;
7330;SDS011;3706;49.198;7.064;2022-11-20T01:07:29;11.20;;;9.20;;
7330;SDS011;3706;49.198;7.064;2022-11-20T01:09:57;14.37;;;8.73;;
7330;SDS011;3706;49.198;7.064;2022-11-20T01:12:24;11.97;;;8.93;;
7330;SDS011;3706;49.198;7.064;2022-11-20T01:14:51;10.33;;;8.37;;
7330;SDS011;3706;49.198;7.064;2022-11-20T01:17:18;9.97;;;8.07;;
7330;SDS011;3706;49.198;7.064;2022-11-20T01:19:48;14.37;;;8.83;;
7330;SDS011;3706;49.198;7.064;2022-11-20T01:22:16;11.03;;;8.40;;
7330;SDS011;3706;49.198;7.064;2022-11-20T01:24:43;17.27;;;8.73;;
7330;SDS011;3706;49.198;7.064;2022-11-20T01:27:10;11.73;;;8.07;;
7330;SDS011;3706;49.198;7.064;2022-11-20T01:29:37;10.03;;;7.87;;
7330;SDS011;3706;49.198;7.064;2022-11-20T01:32:04;12.07;;;7.90;;
7330;SDS011;3706;49.198;7.064;2022-11-20T01:34:31;10.37;;;8.10;;
7330;SDS011;3706;49.198;7.064;2022-11-20T01:36:58;10.23;;;7.00;;
7330;SDS011;3706;49.198;7.064;2022-11-20T01:39:26;7.70;;;6.37;;
7330;SDS011;3706;49.198;7.064;2022-11-20T01:41:53;9.27;;;7.20;;
7330;SDS011;3706;49.198;7.064;2022-11-20T01:44:44;10.83;;;7.83;;
7330;SDS011;3706;49.198;7.064;2022-11-20T01:47:16;9.03;;;6.93;;
7330;SDS011;3706;49.198;7.064;2022-11-20T01:49:46;9.70;;;6.77;;
7330;SDS011;3706;49.198;7.064;2022-11-20T01:52:17;9.17;;;6.67;;
7330;SDS011;3706;49.198;7.064;2022-11-20T01:54:48;9.33;;;7.27;;
7330;SDS011;3706;49.198;7.064;2022-11-20T01:57:19;9.77;;;7.23;;
7330;SDS011;3706;49.198;7.064;2022-11-20T01:59:49;9.00;;;6.20;;
7330;SDS011;3706;49.198;7.064;2022-11-20T02:02:20;8.87;;;6.80;;
7330;SDS011;3706;49.198;7.064;2022-11-20T02:04:47;8.27;;;5.70;;
7330;SDS011;3706;49.198;7.064;2022-11-20T02:07:17;8.23;;;6.43;;
7330;SDS011;3706;49.198;7.064;2022-11-20T02:09:46;11.67;;;5.73;;
7330;SDS011;3706;49.198;7.064;2022-11-20T02:12:14;7.87;;;5.80;;
7330;SDS011;3706;49.198;7.064;2022-11-20T02:14:55;8.83;;;6.30;;
7330;SDS011;3706;49.198;7.064;2022-11-20T02:17:23;8.53;;;6.13;;
7330;SDS011;3706;49.198;7.064;2022-11-20T02:19:50;6.47;;;5.37;;
7330;SDS011;3706;49.198;7.064;2022-11-20T02:22:18;7.90;;;5.77;;
7330;SDS011;3706;49.198;7.064;2022-11-20T02:24:51;5.97;;;5.13;;
7330;SDS011;3706;49.198;7.064;2022-11-20T02:27:18;6.50;;;5.33;;
7330;SDS011;3706;49.198;7.064;2022-11-20T02:29:46;9.23;;;5.50;;
7330;SDS011;3706;49.198;7.064;2022-11-20T02:32:20;6.00;;;5.40;;
7330;SDS011;3706;49.198;7.064;2022-11-20T02:34:48;7.67;;;5.23;;
7330;SDS011;3706;49.198;7.064;2022-11-20T02:37:15;7.50;;;5.17;;
7330;SDS011;3706;49.198;7.064;2022-11-20T02:39:43;5.93;;;5.27;;
7330;SDS011;3706;49.198;7.064;2022-11-20T02:42:13;7.07;;;5.53;;
7330;SDS011;3706;49.198;7.064;2022-11-20T02:44:40;7.53;;;4.60;;
7330;SDS011;3706;49.198;7.064;2022-11-20T02:47:07;6.33;;;4.90;;
7330;SDS011;3706;49.198;7.064;2022-11-20T02:49:34;6.77;;;5.40;;
7330;SDS011;3706;49.198;7.064;2022-11-20T02:52:01;4.90;;;4.40;;
7330;SDS011;3706;49.198;7.064;2022-11-20T02:54:28;6.43;;;4.77;;
7330;SDS011;3706;49.198;7.064;2022-11-20T02:56:55;6.03;;;4.70;;
7330;SDS011;3706;49.198;7.064;2022-11-20T02:59:24;5.60;;;4.07;;
7330;SDS011;3706;49.198;7.064;2022-11-20T03:01:51;5.40;;;4.30;;
7330;SDS011;3706;49.198;7.064;2022-11-20T03:04:17;6.37;;;4.50;;
7330;SDS011;3706;49.198;7.064;2022-11-20T03:06:44;6.77;;;4.50;;
7330;SDS011;3706;49.198;7.064;2022-11-20T03:09:12;5.30;;;4.03;;
7330;SDS011;3706;49.198;7.064;2022-11-20T03:11:39;5.37;;;4.23;;
7330;SDS011;3706;49.198;7.064;2022-11-20T03:14:06;4.67;;;4.03;;
7330;SDS011;3706;49.198;7.064;2022-11-20T03:16:34;5.53;;;3.73;;
7330;SDS011;3706;49.198;7.064;2022-11-20T03:19:01;6.93;;;4.63;;
7330;SDS011;3706;49.198;7.064;2022-11-20T03:21:28;5.87;;;4.20;;
7330;SDS011;3706;49.198;7.064;2022-11-20T03:23:55;4.73;;;4.30;;
7330;SDS011;3706;49.198;7.064;2022-11-20T03:26:23;6.23;;;4.03;;
7330;SDS011;3706;49.198;7.064;2022-11-20T03:28:51;4.53;;;3.90;;
7330;SDS011;3706;49.198;7.064;2022-11-20T03:31:22;8.63;;;4.33;;
7330;SDS011;3706;49.198;7.064;2022-11-20T03:33:51;7.07;;;4.43;;
7330;SDS011;3706;49.198;7.064;2022-11-20T03:36:19;5.23;;;4.30;;
7330;SDS011;3706;49.198;7.064;2022-11-20T03:38:47;5.37;;;3.83;;
7330;SDS011;3706;49.198;7.064;2022-11-20T03:41:15;6.33;;;3.87;;
7330;SDS011;3706;49.198;7.064;2022-11-20T03:43:46;4.87;;;3.97;;
7330;SDS011;3706;49.198;7.064;2022-11-20T03:46:14;5.50;;;3.93;;
7330;SDS011;3706;49.198;7.064;2022-11-20T03:48:41;5.03;;;4.53;;
7330;SDS011;3706;49.198;7.064;2022-11-20T03:51:10;5.20;;;4.13;;
7330;SDS011;3706;49.198;7.064;2022-11-20T03:53:39;5.57;;;4.30;;
7330;SDS011;3706;49.198;7.064;2022-11-20T03:56:07;6.57;;;4.03;;
7330;SDS011;3706;49.198;7.064;2022-11-20T03:58:34;5.10;;;4.20;;
7330;SDS011;3706;49.198;7.064;2022-11-20T04:01:06;5.73;;;4.90;;
7330;SDS011;3706;49.198;7.064;2022-11-20T04:03:34;4.90;;;4.20;;
7330;SDS011;3706;49.198;7.064;2022-11-20T04:06:02;5.90;;;4.27;;
7330;SDS011;3706;49.198;7.064;2022-11-20T04:08:32;5.67;;;4.63;;
7330;SDS011;3706;49.198;7.064;2022-11-20T04:11:07;6.07;;;4.37;;
7330;SDS011;3706;49.198;7.064;2022-11-20T04:13:35;6.47;;;4.53;;
7330;SDS011;3706;49.198;7.064;2022-11-20T04:16:03;7.03;;;4.90;;
7330;SDS011;3706;49.198;7.064;2022-11-20T04:18:30;8.33;;;5.07;;
7330;SDS011;3706;49.198;7.064;2022-11-20T04:20:57;5.63;;;4.70;;
7330;SDS011;3706;49.198;7.064;2022-11-20T04:23:24;6.43;;;4.40;;
7330;SDS011;3706;49.198;7.064;2022-11-20T04:25:53;7.63;;;5.20;;
7330;SDS011;3706;49.198;7.064;2022-11-20T04:28:20;5.20;;;4.70;;
7330;SDS011;3706;49.198;7.064;2022-11-20T04:30:47;8.07;;;5.57;;
7330;SDS011;3706;49.198;7.064;2022-11-20T04:33:13;7.43;;;5.23;;
7330;SDS011;3706;49.198;7.064;2022-11-20T04:35:40;5.67;;;4.40;;
7330;SDS011;3706;49.198;7.064;2022-11-20T04:38:08;6.87;;;5.40;;
7330;SDS011;3706;49.198;7.064;2022-11-20T04:40:35;6.33;;;4.73;;
7330;SDS011;3706;49.198;7.064;2022-11-20T04:43:04;7.80;;;5.77;;
7330;SDS011;3706;49.198;7.064;2022-11-20T04:45:31;9.00;;;4.43;;
7330;SDS011;3706;49.198;7.064;2022-11-20T04:47:58;6.03;;;4.70;;
7330;SDS011;3706;49.198;7.064;2022-11-20T04:50:24;6.57;;;4.47;;
7330;SDS011;3706;49.198;7.064;2022-11-20T04:52:52;6.77;;;4.93;;
7330;SDS011;3706;49.198;7.064;2022-11-20T04:55:18;5.33;;;4.77;;
7330;SDS011;3706;49.198;7.064;2022-11-20T04:57:45;6.73;;;5.53;;
7330;SDS011;3706;49.198;7.064;2022-11-20T05:00:18;7.13;;;5.33;;
7330;SDS011;3706;49.198;7.064;2022-11-20T05:02:45;6.23;;;4.93;;
7330;SDS011;3706;49.198;7.064;2022-11-20T05:05:12;8.80;;;6.20;;
7330;SDS011;3706;49.198;7.064;2022-11-20T05:07:39;9.57;;;5.17;;
7330;SDS011;3706;49.198;7.064;2022-11-20T05:10:06;7.47;;;5.10;;
7330;SDS011;3706;49.198;7.064;2022-11-20T05:12:33;5.70;;;5.10;;
7330;SDS011;3706;49.198;7.064;2022-11-20T05:15:00;7.33;;;5.63;;
7330;SDS011;3706;49.198;7.064;2022-11-20T05:17:28;8.73;;;5.50;;
7330;SDS011;3706;49.198;7.064;2022-11-20T05:19:55;9.53;;;5.97;;
7330;SDS011;3706;49.198;7.064;2022-11-20T05:22:22;9.00;;;5.03;;
7330;SDS011;3706;49.198;7.064;2022-11-20T05:24:49;6.70;;;5.27;;
7330;SDS011;3706;49.198;7.064;2022-11-20T05:27:16;7.00;;;5.00;;
7330;SDS011;3706;49.198;7.064;2022-11-20T05:29:43;8.13;;;5.83;;
7330;SDS011;3706;49.198;7.064;2022-11-20T05:32:10;8.23;;;5.07;;
7330;SDS011;3706;49.198;7.064;2022-11-20T05:34:38;8.37;;;5.73;;
7330;SDS011;3706;49.198;7.064;2022-11-20T05:37:05;13.47;;;7.47;;
7330;SDS011;3706;49.198;7.064;2022-11-20T05:39:32;7.73;;;5.67;;
7330;SDS011;3706;49.198;7.064;2022-11-20T05:41:59;6.80;;;5.93;;
7330;SDS011;3706;49.198;7.064;2022-11-20T05:44:43;9.13;;;5.73;;
7330;SDS011;3706;49.198;7.064;2022-11-20T05:47:09;6.50;;;5.63;;
7330;SDS011;3706;49.198;7.064;2022-11-20T05:49:38;5.97;;;4.97;;
7330;SDS011;3706;49.198;7.064;2022-11-20T05:52:05;6.37;;;4.73;;
7330;SDS011;3706;49.198;7.064;2022-11-20T05:54:32;4.83;;;4.33;;
7330;SDS011;3706;49.198;7.064;2022-11-20T05:56:58;8.30;;;5.50;;
7330;SDS011;3706;49.198;7.064;2022-11-20T05:59:26;6.53;;;5.20;;
7330;SDS011;3706;49.198;7.064;2022-11-20T06:01:53;7.40;;;5.67;;
7330;SDS011;3706;49.198;7.064;2022-11-20T06:04:20;7.60;;;6.07;;
7330;SDS011;3706;49.198;7.064;2022-11-20T06:06:48;8.00;;;6.10;;
7330;SDS011;3706;49.198;7.064;2022-11-20T06:09:15;6.63;;;5.57;;
7330;SDS011;3706;49.198;7.064;2022-11-20T06:11:42;6.73;;;6.03;;
7330;SDS011;3706;49.198;7.064;2022-11-20T06:14:08;11.23;;;5.97;;
7330;SDS011;3706;49.198;7.064;2022-11-20T06:16:35;9.53;;;6.23;;
7330;SDS011;3706;49.198;7.064;2022-11-20T06:19:03;9.67;;;6.17;;
7330;SDS011;3706;49.198;7.064;2022-11-20T06:21:29;8.03;;;6.07;;
7330;SDS011;3706;49.198;7.064;2022-11-20T06:23:58;7.77;;;6.20;;
7330;SDS011;3706;49.198;7.064;2022-11-20T06:26:25;6.40;;;5.80;;
7330;SDS011;3706;49.198;7.064;2022-11-20T06:28:53;8.90;;;6.23;;
7330;SDS011;3706;49.198;7.064;2022-11-20T06:31:22;6.07;;;5.30;;
7330;SDS011;3706;49.198;7.064;2022-11-20T06:33:49;7.27;;;5.30;;
7330;SDS011;3706;49.198;7.064;2022-11-20T06:36:18;8.10;;;5.77;;
7330;SDS011;3706;49.198;7.064;2022-11-20T06:38:46;8.30;;;5.80;;
7330;SDS011;3706;49.198;7.064;2022-11-20T06:41:15;7.70;;;5.70;;
7330;SDS011;3706;49.198;7.064;2022-11-20T06:43:43;6.67;;;5.97;;
7330;SDS011;3706;49.198;7.064;2022-11-20T06:46:10;6.53;;;4.53;;
7330;SDS011;3706;49.198;7.064;2022-11-20T06:48:38;8.10;;;5.67;;
7330;SDS011;3706;49.198;7.064;2022-11-20T06:51:06;6.37;;;5.73;;
7330;SDS011;3706;49.198;7.064;2022-11-20T06:53:34;9.53;;;8.53;;
7330;SDS011;3706;49.198;7.064;2022-11-20T06:56:01;9.83;;;6.00;;
7330;SDS011;3706;49.198;7.064;2022-11-20T06:58:30;6.60;;;5.07;;
7330;SDS011;3706;49.198;7.064;2022-11-20T07:00:59;5.80;;;4.77;;
7330;SDS011;3706;49.198;7.064;2022-11-20T07:03:26;6.57;;;4.37;;
7330;SDS011;3706;49.198;7.064;2022-11-20T07:05:54;4.87;;;4.33;;
7330;SDS011;3706;49.198;7.064;2022-11-20T07:08:21;6.23;;;3.90;;
7330;SDS011;3706;49.198;7.064;2022-11-20T07:10:48;3.63;;;3.23;;
7330;SDS011;3706;49.198;7.064;2022-11-20T07:13:15;4.40;;;3.27;;
7330;SDS011;3706;49.198;7.064;2022-11-20T07:15:44;3.90;;;3.50;;
7330;SDS011;3706;49.198;7.064;2022-11-20T07:18:11;3.60;;;3.20;;
7330;SDS011;3706;49.198;7.064;2022-11-20T07:20:38;4.23;;;3.07;;
7330;SDS011;3706;49.198;7.064;2022-11-20T07:23:04;4.60;;;2.90;;
7330;SDS011;3706;49.198;7.064;2022-11-20T07:25:31;4.80;;;3.20;;
7330;SDS011;3706;49.198;7.064;2022-11-20T07:27:58;4.80;;;3.73;;
7330;SDS011;3706;49.198;7.064;2022-11-20T07:30:26;5.30;;;3.73;;
7330;SDS011;3706;49.198;7.064;2022-11-20T07:32:54;4.10;;;3.57;;
7330;SDS011;3706;49.198;7.064;2022-11-20T07:35:22;4.43;;;4.03;;
7330;SDS011;3706;49.198;7.064;2022-11-20T07:37:49;5.47;;;4.53;;
7330;SDS011;3706;49.198;7.064;2022-11-20T07:40:16;4.77;;;4.37;;
7330;SDS011;3706;49.198;7.064;2022-11-20T07:42:47;5.50;;;3.80;;
7330;SDS011;3706;49.198;7.064;2022-11-20T07:45:15;8.47;;;5.33;;
7330;SDS011;3706;49.198;7.064;2022-11-20T07:47:42;6.17;;;4.00;;
7330;SDS011;3706;49.198;7.064;2022-11-20T07:50:11;4.90;;;3.67;;
7330;SDS011;3706;49.198;7.064;2022-11-20T07:52:38;4.30;;;3.33;;
7330;SDS011;3706;49.198;7.064;2022-11-20T07:55:06;8.77;;;3.90;;
7330;SDS011;3706;49.198;7.064;2022-11-20T07:57:34;6.37;;;3.63;;
7330;SDS011;3706;49.198;7.064;2022-11-20T08:00:01;6.73;;;5.33;;
7330;SDS011;3706;49.198;7.064;2022-11-20T08:02:29;6.77;;;5.43;;
7330;SDS011;3706;49.198;7.064;2022-11-20T08:04:55;5.33;;;3.90;;
7330;SDS011;3706;49.198;7.064;2022-11-20T08:07:24;5.50;;;4.20;;
7330;SDS011;3706;49.198;7.064;2022-11-20T08:09:51;4.13;;;3.20;;
7330;SDS011;3706;49.198;7.064;2022-11-20T08:12:18;5.17;;;3.70;;
7330;SDS011;3706;49.198;7.064;2022-11-20T08:15:04;3.77;;;3.10;;
7330;SDS011;3706;49.198;7.064;2022-11-20T08:17:32;4.90;;;3.77;;
7330;SDS011;3706;49.198;7.064;2022-11-20T08:19:59;5.33;;;3.20;;
7330;SDS011;3706;49.198;7.064;2022-11-20T08:22:27;5.10;;;3.73;;
7330;SDS011;3706;49.198;7.064;2022-11-20T08:24:54;6.57;;;3.90;;
7330;SDS011;3706;49.198;7.064;2022-11-20T08:27:21;6.23;;;3.47;;
7330;SDS011;3706;49.198;7.064;2022-11-20T08:29:48;4.80;;;3.43;;
7330;SDS011;3706;49.198;7.064;2022-11-20T08:32:15;5.20;;;4.27;;
7330;SDS011;3706;49.198;7.064;2022-11-20T08:34:42;5.73;;;4.17;;
7330;SDS011;3706;49.198;7.064;2022-11-20T08:37:09;7.83;;;3.87;;
7330;SDS011;3706;49.198;7.064;2022-11-20T08:39:37;11.33;;;4.50;;
7330;SDS011;3706;49.198;7.064;2022-11-20T08:42:06;6.90;;;3.90;;
7330;SDS011;3706;49.198;7.064;2022-11-20T08:44:33;4.70;;;3.53;;
7330;SDS011;3706;49.198;7.064;2022-11-20T08:47:00;6.20;;;4.00;;
7330;SDS011;3706;49.198;7.064;2022-11-20T08:49:27;6.07;;;3.93;;
7330;SDS011;3706;49.198;7.064;2022-11-20T08:51:54;6.27;;;3.67;;
7330;SDS011;3706;49.198;7.064;2022-11-20T08:54:21;4.80;;;3.60;;
7330;SDS011;3706;49.198;7.064;2022-11-20T08:56:49;4.67;;;3.40;;
7330;SDS011;3706;49.198;7.064;2022-11-20T08:59:16;6.50;;;4.00;;
7330;SDS011;3706;49.198;7.064;2022-11-20T09:01:43;10.40;;;4.60;;
7330;SDS011;3706;49.198;7.064;2022-11-20T09:04:10;4.90;;;3.30;;
7330;SDS011;3706;49.198;7.064;2022-11-20T09:06:39;6.00;;;3.43;;
7330;SDS011;3706;49.198;7.064;2022-11-20T09:09:06;4.70;;;3.20;;
7330;SDS011;3706;49.198;7.064;2022-11-20T09:11:33;5.30;;;3.27;;
7330;SDS011;3706;49.198;7.064;2022-11-20T09:14:02;5.40;;;3.30;;
7330;SDS011;3706;49.198;7.064;2022-11-20T09:16:29;6.90;;;4.73;;
7330;SDS011;3706;49.198;7.064;2022-11-20T09:18:56;4.87;;;2.90;;
7330;SDS011;3706;49.198;7.064;2022-11-20T09:21:23;5.67;;;3.03;;
7330;SDS011;3706;49.198;7.064;2022-11-20T09:23:50;5.30;;;3.13;;
7330;SDS011;3706;49.198;7.064;2022-11-20T09:26:17;5.27;;;2.90;;
7330;SDS011;3706;49.198;7.064;2022-11-20T09:28:44;8.40;;;4.97;;
7330;SDS011;3706;49.198;7.064;2022-11-20T09:31:16;7.97;;;3.53;;
7330;SDS011;3706;49.198;7.064;2022-11-20T09:33:48;6.30;;;3.30;;
7330;SDS011;3706;49.198;7.064;2022-11-20T09:36:15;5.13;;;3.80;;
7330;SDS011;3706;49.198;7.064;2022-11-20T09:38:43;7.80;;;3.50;;
7330;SDS011;3706;49.198;7.064;2022-11-20T09:41:16;6.43;;;3.23;;
7330;SDS011;3706;49.198;7.064;2022-11-20T09:43:57;5.27;;;3.57;;
7330;SDS011;3706;49.198;7.064;2022-11-20T09:46:33;5.83;;;3.17;;
7330;SDS011;3706;49.198;7.064;2022-11-20T09:49:14;6.93;;;3.63;;
7330;SDS011;3706;49.198;7.064;2022-11-20T09:51:51;5.80;;;3.10;;
7330;SDS011;3706;49.198;7.064;2022-11-20T09:54:25;7.03;;;3.50;;
7330;SDS011;3706;49.198;7.064;2022-11-20T09:56:56;8.07;;;4.00;;
7330;SDS011;3706;49.198;7.064;2022-11-20T09:59:29;8.93;;;4.20;;
7330;SDS011;3706;49.198;7.064;2022-11-20T10:02:08;9.90;;;6.57;;
7330;SDS011;3706;49.198;7.064;2022-11-20T10:04:43;6.70;;;3.43;;
7330;SDS011;3706;49.198;7.064;2022-11-20T10:07:15;8.47;;;3.60;;
7330;SDS011;3706;49.198;7.064;2022-11-20T10:09:49;6.63;;;3.50;;
7330;SDS011;3706;49.198;7.064;2022-11-20T10:12:19;8.47;;;3.77;;
7330;SDS011;3706;49.198;7.064;2022-11-20T10:14:57;6.20;;;3.23;;
7330;SDS011;3706;49.198;7.064;2022-11-20T10:17:44;6.60;;;3.20;;
7330;SDS011;3706;49.198;7.064;2022-11-20T10:20:27;5.30;;;2.90;;
7330;SDS011;3706;49.198;7.064;2022-11-20T10:23:09;5.97;;;2.80;;
7330;SDS011;3706;49.198;7.064;2022-11-20T10:25:54;7.33;;;3.17;;
7330;SDS011;3706;49.198;7.064;2022-11-20T10:28:30;8.13;;;3.83;;
7330;SDS011;3706;49.198;7.064;2022-11-20T10:31:14;7.60;;;3.80;;
7330;SDS011;3706;49.198;7.064;2022-11-20T10:33:52;5.30;;;3.50;;
7330;SDS011;3706;49.198;7.064;2022-11-20T10:36:22;5.10;;;3.40;;
7330;SDS011;3706;49.198;7.064;2022-11-20T10:38:54;10.27;;;4.40;;
7330;SDS011;3706;49.198;7.064;2022-11-20T10:41:27;6.83;;;3.50;;
7330;SDS011;3706;49.198;7.064;2022-11-20T10:44:02;5.43;;;3.20;;
7330;SDS011;3706;49.198;7.064;2022-11-20T10:46:37;7.10;;;3.63;;
7330;SDS011;3706;49.198;7.064;2022-11-20T10:49:12;5.97;;;3.07;;
7330;SDS011;3706;49.198;7.064;2022-11-20T10:51:43;5.60;;;3.07;;
7330;SDS011;3706;49.198;7.064;2022-11-20T10:54:22;6.27;;;2.80;;
7330;SDS011;3706;49.198;7.064;2022-11-20T10:56:56;5.37;;;3.00;;
7330;SDS011;3706;49.198;7.064;2022-11-20T10:59:38;5.80;;;2.90;;
7330;SDS011;3706;49.198;7.064;2022-11-20T11:02:15;7.10;;;2.77;;
7330;SDS011;3706;49.198;7.064;2022-11-20T11:04:46;6.23;;;2.50;;
7330;SDS011;3706;49.198;7.064;2022-11-20T11:07:16;6.57;;;2.63;;
7330;SDS011;3706;49.198;7.064;2022-11-20T11:09:48;5.03;;;2.30;;
7330;SDS011;3706;49.198;7.064;2022-11-20T11:12:16;8.80;;;2.70;;
7330;SDS011;3706;49.198;7.064;2022-11-20T11:14:47;7.37;;;2.70;;
7330;SDS011;3706;49.198;7.064;2022-11-20T11:17:18;4.07;;;2.10;;
7330;SDS011;3706;49.198;7.064;2022-11-20T11:20:04;5.83;;;2.23;;
7330;SDS011;3706;49.198;7.064;2022-11-20T11:22:33;3.77;;;2.40;;
7330;SDS011;3706;49.198;7.064;2022-11-20T11:25:11;3.00;;;2.10;;
7330;SDS011;3706;49.198;7.064;2022-11-20T11:27:50;7.00;;;3.00;;
7330;SDS011;3706;49.198;7.064;2022-11-20T11:30:20;3.50;;;1.90;;
7330;SDS011;3706;49.198;7.064;2022-11-20T11:32:47;2.53;;;1.80;;
7330;SDS011;3706;49.198;7.064;2022-11-20T11:35:20;9.33;;;2.70;;
7330;SDS011;3706;49.198;7.064;2022-11-20T11:37:50;3.10;;;2.40;;
7330;SDS011;3706;49.198;7.064;2022-11-20T11:40:21;6.93;;;2.00;;
7330;SDS011;3706;49.198;7.064;2022-11-20T11:42:53;5.33;;;1.77;;
7330;SDS011;3706;49.198;7.064;2022-11-20T11:45:23;3.37;;;1.63;;
7330;SDS011;3706;49.198;7.064;2022-11-20T11:47:49;2.90;;;1.70;;
7330;SDS011;3706;49.198;7.064;2022-11-20T11:50:21;2.33;;;1.60;;
7330;SDS011;3706;49.198;7.064;2022-11-20T11:52:51;3.30;;;1.37;;
7330;SDS011;3706;49.198;7.064;2022-11-20T11:55:26;4.27;;;2.00;;
7330;SDS011;3706;49.198;7.064;2022-11-20T11:57:59;3.37;;;1.60;;
7330;SDS011;3706;49.198;7.064;2022-11-20T12:00:35;5.40;;;2.00;;
7330;SDS011;3706;49.198;7.064;2022-11-20T12:03:09;5.27;;;2.07;;
7330;SDS011;3706;49.198;7.064;2022-11-20T12:05:43;4.10;;;1.70;;
7330;SDS011;3706;49.198;7.064;2022-11-20T12:08:15;4.23;;;2.13;;
7330;SDS011;3706;49.198;7.064;2022-11-20T12:10:47;4.50;;;1.67;;
7330;SDS011;3706;49.198;7.064;2022-11-20T12:13:20;4.77;;;2.30;;
7330;SDS011;3706;49.198;7.064;2022-11-20T12:15:53;5.27;;;2.13;;
7330;SDS011;3706;49.198;7.064;2022-11-20T12:18:20;3.77;;;1.70;;
7330;SDS011;3706;49.198;7.064;2022-11-20T12:20:53;2.47;;;1.60;;
7330;SDS011;3706;49.198;7.064;2022-11-20T12:23:34;4.00;;;1.60;;
7330;SDS011;3706;49.198;7.064;2022-11-20T12:26:07;4.33;;;1.80;;
7330;SDS011;3706;49.198;7.064;2022-11-20T12:28:44;4.03;;;1.57;;
7330;SDS011;3706;49.198;7.064;2022-11-20T12:31:24;4.83;;;1.90;;
7330;SDS011;3706;49.198;7.064;2022-11-20T12:34:12;6.37;;;1.73;;
7330;SDS011;3706;49.198;7.064;2022-11-20T12:36:56;2.30;;;1.47;;
7330;SDS011;3706;49.198;7.064;2022-11-20T12:39:31;3.37;;;1.70;;
7330;SDS011;3706;49.198;7.064;2022-11-20T12:42:10;6.10;;;2.03;;
7330;SDS011;3706;49.198;7.064;2022-11-20T12:45:12;18.10;;;3.47;;
7330;SDS011;3706;49.198;7.064;2022-11-20T12:48:00;4.23;;;1.60;;
7330;SDS011;3706;49.198;7.064;2022-11-20T12:50:43;17.90;;;3.40;;
7330;SDS011;3706;49.198;7.064;2022-11-20T12:53:22;3.80;;;2.00;;
7330;SDS011;3706;49.198;7.064;2022-11-20T12:55:59;3.60;;;1.50;;
7330;SDS011;3706;49.198;7.064;2022-11-20T12:58:39;6.40;;;1.80;;
7330;SDS011;3706;49.198;7.064;2022-11-20T13:01:24;4.57;;;1.77;;
7330;SDS011;3706;49.198;7.064;2022-11-20T13:04:07;3.93;;;2.07;;
7330;SDS011;3706;49.198;7.064;2022-11-20T13:06:43;3.00;;;1.90;;
7330;SDS011;3706;49.198;7.064;2022-11-20T13:09:12;5.23;;;2.00;;
7330;SDS011;3706;49.198;7.064;2022-11-20T13:11:42;2.53;;;1.47;;
7330;SDS011;3706;49.198;7.064;2022-11-20T13:14:16;3.53;;;2.10;;
7330;SDS011;3706;49.198;7.064;2022-11-20T13:16:58;12.90;;;1.97;;
7330;SDS011;3706;49.198;7.064;2022-11-20T13:19:31;12.47;;;2.53;;
7330;SDS011;3706;49.198;7.064;2022-11-20T13:21:58;8.73;;;1.57;;
7330;SDS011;3706;49.198;7.064;2022-11-20T13:24:27;2.30;;;1.50;;
7330;SDS011;3706;49.198;7.064;2022-11-20T13:27:00;4.03;;;1.70;;
7330;SDS011;3706;49.198;7.064;2022-11-20T13:29:31;4.83;;;1.70;;
7330;SDS011;3706;49.198;7.064;2022-11-20T13:32:03;3.03;;;1.30;;
7330;SDS011;3706;49.198;7.064;2022-11-20T13:34:32;22.10;;;4.67;;
7330;SDS011;3706;49.198;7.064;2022-11-20T13:37:00;4.27;;;1.50;;
7330;SDS011;3706;49.198;7.064;2022-11-20T13:39:31;3.40;;;1.60;;
7330;SDS011;3706;49.198;7.064;2022-11-20T13:41:59;2.57;;;1.60;;
7330;SDS011;3706;49.198;7.064;2022-11-20T13:44:29;19.07;;;3.40;;
7330;SDS011;3706;49.198;7.064;2022-11-20T13:47:03;4.57;;;1.80;;
7330;SDS011;3706;49.198;7.064;2022-11-20T13:49:31;2.10;;;1.13;;
7330;SDS011;3706;49.198;7.064;2022-11-20T13:52:08;9.77;;;1.87;;
7330;SDS011;3706;49.198;7.064;2022-11-20T13:55:05;5.17;;;2.37;;
7330;SDS011;3706;49.198;7.064;2022-11-20T13:57:51;3.30;;;2.23;;
7330;SDS011;3706;49.198;7.064;2022-11-20T14:00:41;3.97;;;1.60;;
7330;SDS011;3706;49.198;7.064;2022-11-20T14:03:13;3.20;;;1.30;;
7330;SDS011;3706;49.198;7.064;2022-11-20T14:05:46;3.07;;;1.50;;
7330;SDS011;3706;49.198;7.064;2022-11-20T14:08:21;2.90;;;1.33;;
7330;SDS011;3706;49.198;7.064;2022-11-20T14:11:03;3.00;;;1.43;;
7330;SDS011;3706;49.198;7.064;2022-11-20T14:13:32;2.37;;;1.53;;
7330;SDS011;3706;49.198;7.064;2022-11-20T14:15:59;2.63;;;1.33;;
7330;SDS011;3706;49.198;7.064;2022-11-20T14:18:26;3.87;;;1.67;;
7330;SDS011;3706;49.198;7.064;2022-11-20T14:20:53;4.37;;;1.30;;
7330;SDS011;3706;49.198;7.064;2022-11-20T14:23:24;2.13;;;1.17;;
7330;SDS011;3706;49.198;7.064;2022-11-20T14:25:52;3.00;;;1.80;;
7330;SDS011;3706;49.198;7.064;2022-11-20T14:28:24;2.83;;;1.43;;
7330;SDS011;3706;49.198;7.064;2022-11-20T14:30:53;4.03;;;1.60;;
7330;SDS011;3706;49.198;7.064;2022-11-20T14:33:21;3.63;;;1.60;;
7330;SDS011;3706;49.198;7.064;2022-11-20T14:35:50;6.60;;;1.80;;
7330;SDS011;3706;49.198;7.064;2022-11-20T14:38:19;6.33;;;1.80;;
7330;SDS011;3706;49.198;7.064;2022-11-20T14:40:49;3.63;;;1.80;;
7330;SDS011;3706;49.198;7.064;2022-11-20T14:43:17;5.47;;;1.60;;
7330;SDS011;3706;49.198;7.064;2022-11-20T14:45:50;6.67;;;2.10;;
7330;SDS011;3706;49.198;7.064;2022-11-20T14:48:23;4.83;;;1.73;;
7330;SDS011;3706;49.198;7.064;2022-11-20T14:50:54;7.17;;;1.80;;
7330;SDS011;3706;49.198;7.064;2022-11-20T14:53:22;3.57;;;1.50;;
7330;SDS011;3706;49.198;7.064;2022-11-20T14:55:54;3.53;;;1.77;;
7330;SDS011;3706;49.198;7.064;2022-11-20T14:58:24;3.27;;;1.50;;
7330;SDS011;3706;49.198;7.064;2022-11-20T15:00:57;3.07;;;1.60;;
7330;SDS011;3706;49.198;7.064;2022-11-20T15:03:30;5.03;;;1.73;;
7330;SDS011;3706;49.198;7.064;2022-11-20T15:05:58;5.53;;;1.70;;
7330;SDS011;3706;49.198;7.064;2022-11-20T15:08:25;3.17;;;1.50;;
7330;SDS011;3706;49.198;7.064;2022-11-20T15:10:53;2.47;;;1.43;;
7330;SDS011;3706;49.198;7.064;2022-11-20T15:13:26;6.33;;;1.97;;
7330;SDS011;3706;49.198;7.064;2022-11-20T15:15:58;3.47;;;1.83;;
7330;SDS011;3706;49.198;7.064;2022-11-20T15:18:26;3.77;;;1.83;;
7330;SDS011;3706;49.198;7.064;2022-11-20T15:20:56;4.50;;;2.37;;
7330;SDS011;3706;49.198;7.064;2022-11-20T15:23:24;4.30;;;2.33;;
7330;SDS011;3706;49.198;7.064;2022-11-20T15:25:53;5.67;;;2.57;;
7330;SDS011;3706;49.198;7.064;2022-11-20T15:28:21;6.13;;;1.97;;
7330;SDS011;3706;49.198;7.064;2022-11-20T15:30:55;3.80;;;1.83;;